createdAt,value
2017-12-31T03:15:57.312Z,13.10
2017-12-31T03:18:24.824Z,13.10
2017-12-31T03:20:53.050Z,13.00
2017-12-31T03:23:20.559Z,13.00
2017-12-31T03:25:48.093Z,13.00
2017-12-31T03:28:15.617Z,13.20
2017-12-31T03:30:43.144Z,13.00
2017-12-31T03:33:10.660Z,13.00
2017-12-31T03:35:38.196Z,12.90
2017-12-31T03:38:05.747Z,12.80
2017-12-31T03:40:34.064Z,13.00
2017-12-31T03:43:01.596Z,13.00
2017-12-31T03:45:29.233Z,13.00
2017-12-31T03:47:56.776Z,13.30
2017-12-31T03:50:25.016Z,13.20
2017-12-31T03:52:52.582Z,13.10
2017-12-31T03:55:20.109Z,12.80
2017-12-31T03:57:47.648Z,12.70
2017-12-31T04:00:15.173Z,12.70
2017-12-31T04:02:42.718Z,12.60
2017-12-31T04:05:10.244Z,12.60
2017-12-31T04:07:38.551Z,12.60
2017-12-31T04:10:07.083Z,12.70
2017-12-31T04:12:35.375Z,13.00
2017-12-31T04:15:02.896Z,13.00
2017-12-31T04:17:32.466Z,13.10
2017-12-31T04:19:59.980Z,12.90
2017-12-31T04:22:27.914Z,12.90
2017-12-31T04:24:55.435Z,12.90
2017-12-31T04:27:24.356Z,12.70
2017-12-31T04:29:52.196Z,12.60
2017-12-31T04:32:19.726Z,12.80
2017-12-31T04:34:47.243Z,12.80
2017-12-31T04:37:14.764Z,12.80
2017-12-31T04:39:43.040Z,12.70
2017-12-31T04:42:10.588Z,13.00
2017-12-31T04:44:38.109Z,12.90
2017-12-31T04:47:05.673Z,12.90
2017-12-31T04:49:33.194Z,12.60
2017-12-31T04:52:01.206Z,12.70
2017-12-31T04:54:28.717Z,12.70
2017-12-31T04:56:56.469Z,12.60
2017-12-31T04:59:24.770Z,12.70
2017-12-31T05:01:52.300Z,12.70
2017-12-31T05:04:21.489Z,12.60
2017-12-31T05:06:49.014Z,12.60
2017-12-31T05:09:16.543Z,12.90
2017-12-31T05:11:44.191Z,12.90
2017-12-31T05:14:11.745Z,12.90
2017-12-31T05:16:39.877Z,12.70
2017-12-31T05:19:07.409Z,12.90
2017-12-31T05:21:34.920Z,12.90
2017-12-31T05:24:02.485Z,12.80
2017-12-31T05:26:30.934Z,12.70
2017-12-31T05:28:58.507Z,12.80
2017-12-31T05:31:26.044Z,12.90
2017-12-31T05:33:53.583Z,13.00
2017-12-31T05:36:21.108Z,12.70
2017-12-31T05:38:48.639Z,12.70
2017-12-31T05:41:16.146Z,12.80
2017-12-31T05:43:43.687Z,12.80
2017-12-31T05:46:11.211Z,12.70
2017-12-31T05:48:39.082Z,12.90
2017-12-31T05:51:07.149Z,12.90
2017-12-31T05:53:35.399Z,12.90
2017-12-31T05:56:02.910Z,13.00
2017-12-31T05:58:30.447Z,12.90
2017-12-31T06:00:57.961Z,12.70
2017-12-31T06:03:26.669Z,12.50
2017-12-31T06:05:54.189Z,12.50
2017-12-31T06:08:22.430Z,12.70
2017-12-31T06:10:50.760Z,12.60
2017-12-31T06:13:18.888Z,12.50
2017-12-31T06:15:47.720Z,12.40
2017-12-31T06:18:16.671Z,12.40
2017-12-31T06:20:44.200Z,12.80
2017-12-31T06:23:12.448Z,13.00
2017-12-31T06:25:39.981Z,13.00
2017-12-31T06:28:08.325Z,12.70
2017-12-31T06:30:35.852Z,12.80
2017-12-31T06:33:03.372Z,12.90
2017-12-31T06:35:31.830Z,12.90
2017-12-31T06:38:01.046Z,12.90
2017-12-31T06:40:28.637Z,12.90
2017-12-31T06:42:56.156Z,12.90
2017-12-31T06:45:23.691Z,12.80
2017-12-31T06:47:51.977Z,12.90
2017-12-31T06:50:19.505Z,13.00
2017-12-31T06:52:47.020Z,13.00
2017-12-31T06:55:14.559Z,13.10
2017-12-31T06:57:42.077Z,13.30
2017-12-31T07:00:13.377Z,13.10
2017-12-31T07:02:40.897Z,13.00
2017-12-31T07:05:10.983Z,13.00
2017-12-31T07:07:39.246Z,13.10
2017-12-31T07:10:06.787Z,13.20
2017-12-31T07:12:35.244Z,13.00
2017-12-31T07:15:03.539Z,12.80
2017-12-31T07:17:31.816Z,12.80
2017-12-31T07:19:59.347Z,12.90
2017-12-31T07:22:27.691Z,12.90
2017-12-31T07:24:56.133Z,13.00
2017-12-31T07:27:23.661Z,13.10
2017-12-31T07:29:52.954Z,13.00
2017-12-31T07:32:21.237Z,13.00
2017-12-31T07:34:50.493Z,13.20
2017-12-31T07:37:18.413Z,13.30
2017-12-31T07:39:46.725Z,13.10
2017-12-31T07:42:15.179Z,13.00
2017-12-31T07:44:43.520Z,13.00
2017-12-31T07:47:11.816Z,13.20
2017-12-31T07:49:39.959Z,13.20
2017-12-31T07:52:08.785Z,13.40
2017-12-31T07:54:36.297Z,13.50
2017-12-31T07:57:04.793Z,13.40
2017-12-31T07:59:32.395Z,13.30
2017-12-31T08:02:00.359Z,13.10
2017-12-31T08:04:29.677Z,13.10
2017-12-31T08:06:57.212Z,13.00
2017-12-31T08:09:26.481Z,13.10
2017-12-31T08:11:56.084Z,13.30
2017-12-31T08:14:23.593Z,13.10
2017-12-31T08:16:51.201Z,13.10
2017-12-31T08:19:18.722Z,13.30
2017-12-31T08:21:47.169Z,13.40
2017-12-31T08:24:14.681Z,13.30
2017-12-31T08:26:45.278Z,13.20
2017-12-31T08:29:15.367Z,13.30
2017-12-31T08:31:43.733Z,13.60
2017-12-31T08:34:11.253Z,13.60
2017-12-31T08:36:39.552Z,13.70
2017-12-31T08:39:08.604Z,13.70
2017-12-31T08:41:37.060Z,13.80
2017-12-31T08:44:06.081Z,13.60
2017-12-31T08:46:37.888Z,13.50
2017-12-31T08:49:05.436Z,13.80
2017-12-31T08:51:32.978Z,13.70
2017-12-31T08:54:00.495Z,13.70
2017-12-31T08:56:28.429Z,13.80
2017-12-31T08:58:55.952Z,13.70
2017-12-31T09:01:24.083Z,13.60
2017-12-31T09:03:51.615Z,13.70
2017-12-31T09:06:19.144Z,13.60
2017-12-31T09:08:46.676Z,13.90
2017-12-31T09:11:15.089Z,14.20
2017-12-31T09:13:42.626Z,14.50
2017-12-31T09:16:11.342Z,15.00
2017-12-31T09:18:39.101Z,15.10
2017-12-31T09:21:06.618Z,15.30
2017-12-31T09:23:34.157Z,15.30
2017-12-31T09:26:02.625Z,15.10
2017-12-31T09:28:31.729Z,15.20
2017-12-31T09:31:00.021Z,15.20
2017-12-31T09:33:28.960Z,15.10
2017-12-31T09:35:56.821Z,15.20
2017-12-31T09:38:24.373Z,15.10
2017-12-31T09:40:51.885Z,15.20
2017-12-31T09:43:19.447Z,15.00
2017-12-31T09:45:47.732Z,15.10
2017-12-31T09:48:16.876Z,15.50
2017-12-31T09:50:44.424Z,15.70
2017-12-31T09:53:13.396Z,15.60
2017-12-31T09:55:41.268Z,15.90
2017-12-31T09:58:09.928Z,15.60
2017-12-31T10:00:37.536Z,15.30
2017-12-31T10:03:06.060Z,14.90
2017-12-31T10:05:33.596Z,14.90
2017-12-31T10:08:01.220Z,15.10
2017-12-31T10:10:29.640Z,14.80
2017-12-31T10:12:57.244Z,14.70
2017-12-31T10:15:25.456Z,14.70
2017-12-31T10:17:54.049Z,14.70
2017-12-31T10:20:21.560Z,14.40
2017-12-31T10:22:50.466Z,14.20
2017-12-31T10:25:17.996Z,14.00
2017-12-31T10:27:47.808Z,13.90
2017-12-31T10:30:16.189Z,14.00
2017-12-31T10:32:47.416Z,14.20
2017-12-31T10:35:17.390Z,14.40
2017-12-31T10:37:44.923Z,14.40
2017-12-31T10:40:12.456Z,14.40
2017-12-31T10:42:39.970Z,14.40
2017-12-31T10:45:07.513Z,14.40
2017-12-31T10:47:35.024Z,14.70
2017-12-31T10:50:03.328Z,15.00
2017-12-31T10:55:31.475Z,14.70
2017-12-31T10:57:59.584Z,14.70
2017-12-31T11:00:35.241Z,14.60
2017-12-31T11:03:03.672Z,14.50
2017-12-31T11:05:35.300Z,14.50
2017-12-31T11:08:03.221Z,14.60
2017-12-31T11:10:30.780Z,14.60
2017-12-31T11:12:59.026Z,14.60
2017-12-31T11:15:26.589Z,14.70
2017-12-31T11:20:28.510Z,15.10
2017-12-31T11:22:56.020Z,15.20
2017-12-31T11:25:23.568Z,15.10
2017-12-31T11:27:51.858Z,15.30
2017-12-31T11:30:19.465Z,15.50
2017-12-31T11:32:47.621Z,15.40
2017-12-31T11:35:15.561Z,15.80
2017-12-31T11:37:43.100Z,15.80
2017-12-31T11:40:10.649Z,15.40
2017-12-31T11:42:38.168Z,15.30
2017-12-31T11:45:05.723Z,15.50
2017-12-31T11:47:35.564Z,15.80
2017-12-31T11:50:03.767Z,16.30
2017-12-31T11:52:32.095Z,17.10
2017-12-31T11:54:59.630Z,17.60
2017-12-31T11:57:27.155Z,17.70
2017-12-31T11:59:56.249Z,17.90
2017-12-31T12:02:24.535Z,17.80
2017-12-31T12:04:53.764Z,17.30
2017-12-31T12:07:22.050Z,17.00
2017-12-31T12:09:49.598Z,16.80
2017-12-31T12:12:18.813Z,16.50
2017-12-31T12:14:47.076Z,16.50
2017-12-31T12:17:16.348Z,16.60
2017-12-31T12:19:44.592Z,16.40
2017-12-31T12:22:12.518Z,16.20
2017-12-31T12:24:40.053Z,16.20
2017-12-31T12:27:09.424Z,15.90
2017-12-31T12:29:36.952Z,16.10
2017-12-31T12:32:04.788Z,16.40
2017-12-31T12:34:32.317Z,16.80
2017-12-31T12:37:00.664Z,16.80
2017-12-31T12:39:28.194Z,16.90
2017-12-31T12:41:55.729Z,17.10
2017-12-31T12:44:23.240Z,17.40
2017-12-31T12:46:53.440Z,17.30
2017-12-31T12:49:21.721Z,17.10
2017-12-31T12:51:49.259Z,17.30
2017-12-31T12:54:17.369Z,17.50
2017-12-31T12:56:45.636Z,17.60
2017-12-31T12:59:13.201Z,18.00
2017-12-31T13:01:41.719Z,18.40
2017-12-31T13:04:09.652Z,18.90
2017-12-31T13:06:37.197Z,18.60
2017-12-31T13:09:05.492Z,18.50
2017-12-31T13:11:33.071Z,18.10
2017-12-31T13:14:01.807Z,17.70
2017-12-31T13:16:29.356Z,17.30
2017-12-31T13:18:56.900Z,17.20
2017-12-31T13:21:25.228Z,17.30
2017-12-31T13:23:52.990Z,17.30
2017-12-31T13:26:20.568Z,17.80
2017-12-31T13:28:50.693Z,18.50
2017-12-31T13:31:18.995Z,19.30
2017-12-31T13:33:48.198Z,19.30
2017-12-31T13:36:18.448Z,19.40
2017-12-31T13:38:45.990Z,19.80
2017-12-31T13:41:13.501Z,20.30
2017-12-31T13:43:41.079Z,20.40
2017-12-31T13:46:08.639Z,21.00
2017-12-31T13:48:36.588Z,21.40
2017-12-31T13:51:04.923Z,21.00
2017-12-31T13:53:32.467Z,20.90
2017-12-31T13:55:59.981Z,20.50
2017-12-31T13:58:28.283Z,21.00
2017-12-31T14:00:56.657Z,21.20
2017-12-31T14:03:24.228Z,21.70
2017-12-31T14:05:52.160Z,22.00
2017-12-31T14:08:20.608Z,21.60
2017-12-31T14:10:48.899Z,21.40
2017-12-31T14:13:16.475Z,21.50
2017-12-31T14:15:44.748Z,22.00
2017-12-31T14:18:13.761Z,21.80
2017-12-31T14:20:42.049Z,21.40
2017-12-31T14:23:10.565Z,21.60
2017-12-31T14:25:38.239Z,21.60
2017-12-31T14:28:05.795Z,21.10
2017-12-31T14:30:33.302Z,20.60
2017-12-31T14:33:00.832Z,20.40
2017-12-31T14:35:28.423Z,19.50
2017-12-31T14:37:56.014Z,18.70
2017-12-31T14:40:23.844Z,18.20
2017-12-31T14:42:52.556Z,17.90
2017-12-31T14:45:20.280Z,17.90
2017-12-31T14:47:48.597Z,17.80
2017-12-31T14:50:16.840Z,17.40
2017-12-31T14:52:44.611Z,16.80
2017-12-31T14:55:13.554Z,16.90
2017-12-31T14:57:41.476Z,16.90
2017-12-31T15:00:09.827Z,16.80
2017-12-31T15:02:38.208Z,16.70
2017-12-31T15:05:05.736Z,16.80
2017-12-31T15:07:33.764Z,17.10
2017-12-31T15:10:01.441Z,16.80
2017-12-31T15:12:28.955Z,16.40
2017-12-31T15:14:56.548Z,16.20
2017-12-31T15:17:24.842Z,16.30
2017-12-31T15:19:52.824Z,16.40
2017-12-31T15:22:20.680Z,16.40
2017-12-31T15:24:48.263Z,16.20
2017-12-31T15:27:15.819Z,16.30
2017-12-31T15:29:43.364Z,16.40
2017-12-31T15:32:13.823Z,16.40
2017-12-31T15:34:41.500Z,16.40
2017-12-31T15:37:09.135Z,16.30
2017-12-31T15:39:37.521Z,16.40
2017-12-31T15:42:05.062Z,16.40
2017-12-31T15:44:34.325Z,15.80
2017-12-31T15:47:02.777Z,16.30
2017-12-31T15:49:30.354Z,16.30
2017-12-31T15:51:58.627Z,16.20
2017-12-31T15:54:27.101Z,16.10
2017-12-31T15:56:55.013Z,15.90
2017-12-31T15:59:22.966Z,15.90
2017-12-31T16:01:50.698Z,15.60
2017-12-31T16:07:02.684Z,15.40
2017-12-31T16:09:30.262Z,15.50
2017-12-31T16:11:57.780Z,15.50
2017-12-31T16:14:26.599Z,15.40
2017-12-31T16:16:54.479Z,15.40
2017-12-31T16:19:21.989Z,15.40
2017-12-31T16:21:49.562Z,15.30
2017-12-31T16:24:17.076Z,15.30
2017-12-31T16:26:44.601Z,15.10
2017-12-31T16:29:13.910Z,15.20
2017-12-31T16:31:41.581Z,15.10
2017-12-31T16:36:45.055Z,15.20
2017-12-31T16:39:14.066Z,15.20
2017-12-31T16:41:42.312Z,15.10
2017-12-31T16:44:09.826Z,15.10
2017-12-31T16:46:37.364Z,14.90
2017-12-31T16:49:05.849Z,14.90
2017-12-31T16:51:34.037Z,14.90
2017-12-31T16:54:01.560Z,14.80
2017-12-31T16:56:29.083Z,14.80
2017-12-31T16:58:57.410Z,14.80
2017-12-31T17:01:25.375Z,14.90
2017-12-31T17:03:53.847Z,14.80
2017-12-31T17:06:21.640Z,14.60
2017-12-31T17:08:49.170Z,14.40
2017-12-31T17:11:16.755Z,14.40
2017-12-31T17:13:45.074Z,14.20
2017-12-31T17:16:12.600Z,14.10
2017-12-31T17:18:40.175Z,14.00
2017-12-31T17:21:08.455Z,13.90
2017-12-31T17:23:35.968Z,13.80
2017-12-31T17:26:03.878Z,13.80
2017-12-31T17:28:31.373Z,13.60
2017-12-31T17:30:58.919Z,13.50
2017-12-31T17:33:26.470Z,13.40
2017-12-31T17:35:54.050Z,13.30
2017-12-31T17:38:21.606Z,13.20
2017-12-31T17:40:49.729Z,13.10
2017-12-31T17:43:18.219Z,13.00
2017-12-31T17:45:45.732Z,12.90
2017-12-31T17:48:14.182Z,12.80
2017-12-31T17:50:41.735Z,12.80
2017-12-31T17:53:09.314Z,12.70
2017-12-31T17:55:36.839Z,12.60
2017-12-31T17:58:04.383Z,12.50
2017-12-31T18:00:31.905Z,12.50
2017-12-31T18:02:59.432Z,12.30
2017-12-31T18:05:26.951Z,12.30
2017-12-31T18:07:55.824Z,12.30
2017-12-31T18:10:24.128Z,12.30
2017-12-31T18:12:52.606Z,12.20
2017-12-31T18:15:20.178Z,12.20
2017-12-31T18:17:47.727Z,12.10
2017-12-31T18:20:15.248Z,12.00
2017-12-31T18:22:43.566Z,12.00
2017-12-31T18:25:11.626Z,11.90
2017-12-31T18:27:40.064Z,11.80
2017-12-31T18:30:08.270Z,11.70
2017-12-31T20:39:37.912Z,10.20
2017-12-31T20:42:05.836Z,10.30
2017-12-31T20:44:34.307Z,11.10
2017-12-31T20:47:01.876Z,11.20
2017-12-31T20:49:29.791Z,11.10
2017-12-31T20:51:58.925Z,11.00
2017-12-31T20:54:26.945Z,11.00
2017-12-31T20:56:55.389Z,10.80
2017-12-31T20:59:22.975Z,10.60
2017-12-31T21:01:50.586Z,10.40
2017-12-31T21:04:18.128Z,10.20
2017-12-31T21:06:47.044Z,10.00
2017-12-31T21:09:14.631Z,10.10
2017-12-31T21:11:43.113Z,10.20
2017-12-31T21:14:11.105Z,10.10
2017-12-31T21:16:38.944Z,10.10
2017-12-31T21:19:06.456Z,10.30
2017-12-31T21:21:35.680Z,10.30
2017-12-31T21:24:03.244Z,10.30
2017-12-31T21:26:30.823Z,10.30
2017-12-31T21:28:58.380Z,10.20
2017-12-31T21:31:25.926Z,10.10
2017-12-31T21:33:53.495Z,10.10
2017-12-31T21:36:21.077Z,10.20
2017-12-31T21:38:48.601Z,10.30
2017-12-31T21:41:16.968Z,10.40
2017-12-31T21:43:46.105Z,10.40
2017-12-31T21:46:13.730Z,10.30
2017-12-31T21:48:42.079Z,10.20
2017-12-31T21:51:09.667Z,9.90
2017-12-31T21:53:38.979Z,10.00
2017-12-31T21:56:06.582Z,10.10
2017-12-31T21:58:34.397Z,10.20
2017-12-31T22:01:08.552Z,10.30
2017-12-31T22:03:36.526Z,10.20
2017-12-31T22:06:04.918Z,10.20
2017-12-31T22:08:32.490Z,10.20
2017-12-31T22:11:00.064Z,10.10
2017-12-31T22:13:27.609Z,10.50
2017-12-31T22:15:56.197Z,10.50
2017-12-31T22:18:24.348Z,10.50
2017-12-31T22:20:51.939Z,10.40
2017-12-31T22:23:19.501Z,10.30
2017-12-31T22:25:47.857Z,10.30
2017-12-31T22:28:15.681Z,10.20
2017-12-31T22:30:43.258Z,10.20
2017-12-31T22:33:11.607Z,10.20
2017-12-31T22:35:39.192Z,10.10
2017-12-31T22:38:06.763Z,10.10
2017-12-31T22:40:34.359Z,10.00
2017-12-31T22:43:01.932Z,9.80
2017-12-31T22:45:29.585Z,9.90
2017-12-31T22:47:57.587Z,9.80
2017-12-31T22:50:25.164Z,9.80
2017-12-31T22:52:53.134Z,9.80
2017-12-31T22:55:20.669Z,9.80
2017-12-31T22:57:48.241Z,9.70
2017-12-31T23:00:16.199Z,10.30
2017-12-31T23:02:43.758Z,10.60
2017-12-31T23:05:11.715Z,10.70
2017-12-31T23:07:39.341Z,10.80
2017-12-31T23:10:07.479Z,10.90
2017-12-31T23:12:35.968Z,10.90
2017-12-31T23:15:03.884Z,10.80
2017-12-31T23:17:32.089Z,10.60
2017-12-31T23:19:59.613Z,10.30
2017-12-31T23:22:27.158Z,10.20
2017-12-31T23:24:54.723Z,10.10
2017-12-31T23:27:22.307Z,10.00
2017-12-31T23:29:49.838Z,9.90
2017-12-31T23:32:17.380Z,9.90
2017-12-31T23:34:44.943Z,9.90
2017-12-31T23:37:13.300Z,10.10
2017-12-31T23:39:41.591Z,10.20
2017-12-31T23:42:09.139Z,10.50
2017-12-31T23:44:37.469Z,10.50
2017-12-31T23:47:06.068Z,10.50
2017-12-31T23:49:33.607Z,10.60
2017-12-31T23:52:01.156Z,10.70
2017-12-31T23:54:28.682Z,10.90
2017-12-31T23:56:57.011Z,11.00
2017-12-31T23:59:24.590Z,11.00
